Time;durP1;ratioP1;P1;durP2;ratioP2;P2;SDS_P1;SDS_P2;PMS_P1;PMS_P2;Temp;Humidity;BMP_temperature;BMP_pressure;BME280_temperature;BME280_humidity;BME280_pressure;Samples;Min_cycle;Max_cycle;Signal;HPM_P1;HPM_P2
2022/05/29 00:00:18;;;;;;;0.40;0.40;;;10.70;99.90;;;;;;5053082;28;20064;-74
2022/05/29 00:02:44;;;;;;;0.20;0.20;;;10.70;99.90;;;;;;5035069;28;20484;-75
2022/05/29 00:05:11;;;;;;;0.20;0.20;;;10.70;99.90;;;;;;5053043;28;20021;-75
2022/05/29 00:07:39;;;;;;;0.20;0.20;;;10.80;99.90;;;;;;5066415;23;20099;-75
2022/05/29 00:10:09;;;;;;;0.13;0.13;;;10.70;99.90;;;;;;5035094;28;20714;-75
2022/05/29 00:12:35;;;;;;;0.20;0.20;;;10.80;99.90;;;;;;5052822;28;20429;-75
2022/05/29 00:15:02;;;;;;;0.20;0.20;;;11.00;99.90;;;;;;5034978;28;20435;-75
2022/05/29 00:17:28;;;;;;;0.10;0.10;;;11.00;99.90;;;;;;5052623;28;20514;-75
2022/05/29 00:19:54;;;;;;;0.13;0.13;;;11.10;99.90;;;;;;5052403;28;20068;-75
2022/05/29 00:22:22;;;;;;;0.10;0.10;;;10.90;99.90;;;;;;5018152;28;20029;-74
2022/05/29 00:24:49;;;;;;;0.20;0.20;;;10.90;99.90;;;;;;5052428;28;20087;-75
2022/05/29 00:27:16;;;;;;;0.20;0.20;;;11.00;99.90;;;;;;5052227;28;20028;-75
2022/05/29 00:29:43;;;;;;;0.20;0.20;;;11.00;99.90;;;;;;5017899;28;20108;-75
2022/05/29 00:32:10;;;;;;;0.10;0.10;;;10.90;99.90;;;;;;5033714;28;20044;-75
2022/05/29 00:34:36;;;;;;;0.10;0.10;;;10.80;99.90;;;;;;5034494;28;20042;-75
2022/05/29 00:37:07;;;;;;;0.10;0.10;;;10.70;99.90;;;;;;5034420;28;20033;-75
2022/05/29 00:39:34;;;;;;;0.10;0.10;;;10.80;99.90;;;;;;5052193;28;20017;-75
2022/05/29 00:42:06;;;;;;;0.15;0.15;;;10.80;99.90;;;;;;5034270;28;20029;-75
2022/05/29 00:44:33;;;;;;;0.20;0.20;;;10.90;99.90;;;;;;5018008;28;20450;-75
2022/05/29 00:47:10;;;;;;;0.20;0.20;;;10.90;99.90;;;;;;5017655;28;20060;-75
2022/05/29 00:49:38;;;;;;;0.20;0.20;;;11.10;99.90;;;;;;5034306;28;20119;-75
2022/05/29 00:52:18;;;;;;;0.20;0.20;;;11.30;99.90;;;;;;5034065;28;20025;-75
2022/05/29 00:54:55;;;;;;;0.13;0.13;;;11.30;99.90;;;;;;5052043;28;20032;-75
2022/05/29 00:57:25;;;;;;;0.10;0.10;;;11.00;99.90;;;;;;5033951;28;20021;-75
2022/05/29 00:59:53;;;;;;;0.13;0.13;;;10.90;99.90;;;;;;5034050;28;20087;-75
2022/05/29 01:02:19;;;;;;;0.20;0.20;;;10.90;99.90;;;;;;5051988;28;20060;-75
2022/05/29 01:04:45;;;;;;;0.20;0.20;;;10.80;99.90;;;;;;5051901;28;20110;-75
2022/05/29 01:07:14;;;;;;;0.20;0.20;;;10.60;99.90;;;;;;5017100;28;20037;-75
2022/05/29 01:09:42;;;;;;;0.20;0.20;;;10.70;99.90;;;;;;5051903;28;20050;-75
2022/05/29 01:12:20;;;;;;;0.20;0.20;;;10.50;99.90;;;;;;5052260;28;20432;-74
2022/05/29 01:15:12;;;;;;;0.10;0.10;;;10.60;99.90;;;;;;5052028;28;20044;-75
2022/05/29 01:18:11;;;;;;;0.20;0.20;;;10.50;99.90;;;;;;5033583;28;20029;-75
2022/05/29 01:21:18;;;;;;;0.13;0.13;;;10.40;99.90;;;;;;5051860;28;20476;-75
2022/05/29 01:23:58;;;;;;;0.20;0.20;;;10.30;99.90;;;;;;5014338;28;20039;-74
2022/05/29 01:26:58;;;;;;;0.17;0.17;;;10.30;99.90;;;;;;5051653;28;20021;-75
2022/05/29 01:29:46;;;;;;;0.10;0.10;;;10.30;99.90;;;;;;5051654;28;20112;-75
2022/05/29 01:32:17;;;;;;;0.15;0.15;;;10.50;99.90;;;;;;5051653;28;20029;-75
2022/05/29 01:34:52;;;;;;;0.20;0.20;;;10.50;99.90;;;;;;5017453;28;20017;-75
2022/05/29 01:37:45;;;;;;;0.20;0.20;;;10.30;99.90;;;;;;5051361;28;20097;-75
2022/05/29 01:40:41;;;;;;;0.10;0.10;;;10.10;99.90;;;;;;5051579;28;20025;-75
2022/05/29 01:43:13;;;;;;;0.20;0.20;;;10.00;99.90;;;;;;5036200;28;20032;-75
2022/05/29 01:45:55;;;;;;;;;;;10.00;99.90;;;;;;5037942;28;20045;-75
2022/05/29 01:48:32;;;;;;;2.72;2.28;;;10.00;99.90;;;;;;5020785;28;20288;-75
2022/05/29 01:51:05;;;;;;;0.20;0.20;;;9.70;99.90;;;;;;5055433;28;20018;-75
2022/05/29 01:53:43;;;;;;;0.20;0.20;;;9.70;99.90;;;;;;5037705;28;20033;-75
2022/05/29 01:56:17;;;;;;;0.13;0.13;;;9.90;99.90;;;;;;5037659;28;20025;-75
2022/05/29 01:58:49;;;;;;;0.20;0.20;;;9.90;99.90;;;;;;5055326;28;20029;-75
2022/05/29 02:01:16;;;;;;;0.20;0.20;;;10.00;99.90;;;;;;5037643;28;20437;-75
2022/05/29 02:03:48;;;;;;;0.20;0.20;;;10.10;99.90;;;;;;5037436;28;20043;-75
2022/05/29 02:06:19;;;;;;;0.20;0.20;;;9.90;99.90;;;;;;5055064;28;20430;-75
2022/05/29 02:08:56;;;;;;;0.20;0.20;;;9.90;99.90;;;;;;5037152;28;20029;-75
2022/05/29 02:11:24;;;;;;;0.10;0.10;;;10.10;99.90;;;;;;5055014;28;20025;-75
2022/05/29 02:13:56;;;;;;;0.20;0.20;;;10.30;99.90;;;;;;5055046;28;20111;-75
2022/05/29 02:16:27;;;;;;;;;;;10.10;99.90;;;;;;5055443;28;20035;-75
2022/05/29 02:18:54;;;;;;;0.20;0.20;;;10.00;99.90;;;;;;5037120;28;19950;-75
2022/05/29 02:21:41;;;;;;;0.20;0.20;;;10.10;99.90;;;;;;5054737;28;20021;-75
2022/05/29 02:24:13;;;;;;;0.20;0.20;;;10.20;99.90;;;;;;5037031;28;20029;-75
2022/05/29 02:26:47;;;;;;;0.13;0.13;;;9.80;99.90;;;;;;5036911;28;20403;-75
2022/05/29 02:29:14;;;;;;;0.10;0.10;;;9.10;99.90;;;;;;5054686;28;20424;-75
2022/05/29 02:31:55;;;;;;;0.20;0.20;;;9.00;99.90;;;;;;5054454;28;20055;-75
2022/05/29 02:34:35;;;;;;;0.20;0.20;;;9.30;99.90;;;;;;5054768;28;20437;-75
2022/05/29 02:37:14;;;;;;;0.20;0.20;;;9.40;99.90;;;;;;5054499;28;20104;-75
2022/05/29 02:39:58;;;;;;;0.20;0.20;;;9.40;99.90;;;;;;5036704;28;20028;-75
2022/05/29 02:42:39;;;;;;;0.20;0.20;;;9.70;99.90;;;;;;5054458;28;20029;-75
2022/05/29 02:45:39;;;;;;;0.50;0.50;;;9.40;99.90;;;;;;5054452;28;20056;-75
2022/05/29 02:48:23;;;;;;;0.20;0.20;;;9.30;99.90;;;;;;5019810;28;20032;-75
2022/05/29 02:50:53;;;;;;;0.20;0.20;;;9.10;99.90;;;;;;5036567;28;20032;-75
2022/05/29 02:53:19;;;;;;;0.10;0.10;;;9.20;99.90;;;;;;5054033;28;20021;-75
2022/05/29 02:55:45;;;;;;;0.10;0.10;;;9.40;99.90;;;;;;5053867;28;20029;-75
2022/05/29 02:58:18;;;;;;;0.20;0.20;;;9.60;99.90;;;;;;5036042;28;20028;-75
2022/05/29 03:01:02;;;;;;;7.68;0.35;;;9.80;99.90;;;;;;5054220;28;20100;-75
2022/05/29 03:03:36;;;;;;;0.20;0.20;;;9.80;99.90;;;;;;5019724;28;20049;-75
2022/05/29 03:06:24;;;;;;;0.20;0.20;;;9.90;99.90;;;;;;5054102;28;20031;-75
2022/05/29 03:08:50;;;;;;;0.20;0.20;;;9.90;99.90;;;;;;5019643;28;20029;-75
2022/05/29 03:11:27;;;;;;;0.20;0.20;;;9.50;99.90;;;;;;5053915;28;20477;-75
2022/05/29 03:14:21;;;;;;;0.20;0.20;;;9.50;99.90;;;;;;5053920;28;20029;-75
2022/05/29 03:17:06;;;;;;;0.20;0.20;;;9.30;99.90;;;;;;5053685;28;20028;-75
2022/05/29 03:20:09;;;;;;;0.20;0.20;;;9.30;99.90;;;;;;5053722;28;20530;-75
2022/05/29 03:22:40;;;;;;;0.10;0.10;;;9.40;99.90;;;;;;5035775;28;20032;-75
2022/05/29 03:25:17;;;;;;;0.38;0.38;;;9.60;99.90;;;;;;5035670;28;20396;-75
2022/05/29 03:27:48;;;;;;;0.20;0.20;;;9.70;99.90;;;;;;5053377;28;20017;-75
2022/05/29 03:30:22;;;;;;;0.70;0.70;;;9.50;99.90;;;;;;5053449;28;20104;-75
2022/05/29 03:32:51;;;;;;;0.17;0.17;;;9.30;99.90;;;;;;5035678;28;20104;-75
2022/05/29 03:35:27;;;;;;;0.20;0.20;;;9.30;99.90;;;;;;5035583;28;20096;-75
2022/05/29 03:37:54;;;;;;;0.20;0.20;;;9.50;99.90;;;;;;5018628;28;20027;-75
2022/05/29 03:40:21;;;;;;;0.22;0.22;;;9.20;99.90;;;;;;5019048;28;20028;-75
2022/05/29 03:42:47;;;;;;;0.20;0.20;;;9.00;99.90;;;;;;5053283;28;20480;-75
2022/05/29 03:45:13;;;;;;;10.43;1.55;;;9.10;99.90;;;;;;5018860;28;20035;-75
2022/05/29 03:47:39;;;;;;;0.35;0.35;;;9.40;99.90;;;;;;5035222;28;20017;-75
2022/05/29 03:50:08;;;;;;;0.20;0.20;;;9.30;99.90;;;;;;5035403;28;20044;-75
2022/05/29 03:52:34;;;;;;;0.70;0.70;;;9.20;99.90;;;;;;5053108;28;20060;-74
2022/05/29 03:55:00;;;;;;;0.20;0.20;;;9.20;99.90;;;;;;5035360;28;20048;-75
2022/05/29 03:57:27;;;;;;;0.28;0.28;;;9.20;99.90;;;;;;5034874;28;20114;-75
2022/05/29 03:59:52;;;;;;;0.13;0.13;;;9.50;99.90;;;;;;5018646;28;20078;-75
2022/05/29 04:02:19;;;;;;;0.20;0.20;;;9.70;99.90;;;;;;5035195;28;20025;-75
2022/05/29 04:04:45;;;;;;;0.20;0.20;;;10.00;99.90;;;;;;5035006;28;20029;-75
2022/05/29 04:07:11;;;;;;;0.10;0.10;;;10.10;99.90;;;;;;5052459;28;20024;-75
2022/05/29 04:12:21;;;;;;;0.20;0.20;;;9.70;99.90;;;;;;5034911;28;20029;-75
2022/05/29 04:14:47;;;;;;;0.20;0.20;;;9.80;99.90;;;;;;5035097;28;20025;-75
2022/05/29 04:17:16;;;;;;;0.40;0.40;;;9.80;99.90;;;;;;5052424;28;20025;-75
2022/05/29 04:19:43;;;;;;;0.10;0.10;;;9.90;99.90;;;;;;5052581;28;20037;-75
2022/05/29 04:22:13;;;;;;;0.20;0.20;;;10.00;99.90;;;;;;5034717;28;20472;-75
2022/05/29 04:24:38;;;;;;;0.20;0.20;;;10.20;99.90;;;;;;5034544;28;20025;-75
2022/05/29 04:27:08;;;;;;;0.10;0.10;;;10.20;99.90;;;;;;5017943;28;20055;-75
2022/05/29 04:29:34;;;;;;;0.20;0.20;;;10.40;99.90;;;;;;5052284;28;20025;-75
2022/05/29 04:34:43;;;;;;;0.20;0.20;;;10.30;99.90;;;;;;5052507;28;20029;-75
2022/05/29 04:37:09;;;;;;;0.20;0.20;;;10.40;99.90;;;;;;5053313;28;20029;-75
2022/05/29 04:39:36;;;;;;;0.10;0.10;;;10.40;99.90;;;;;;5050671;28;20107;-75
2022/05/29 04:42:03;;;;;;;0.20;0.20;;;10.20;99.90;;;;;;5037299;28;20036;-75
2022/05/29 04:44:30;;;;;;;0.13;0.13;;;10.00;99.90;;;;;;5061665;28;20021;-75
2022/05/29 04:46:58;;;;;;;0.10;0.10;;;10.10;99.90;;;;;;5026249;28;20021;-75
2022/05/29 04:49:24;;;;;;;0.10;0.10;;;10.00;99.90;;;;;;5052184;28;20496;-75
2022/05/29 04:51:50;;;;;;;0.22;0.22;;;9.80;99.90;;;;;;5050685;28;20109;-75
2022/05/29 04:54:15;;;;;;;0.20;0.20;;;9.80;99.90;;;;;;5034276;28;20086;-75
2022/05/29 04:56:41;;;;;;;0.20;0.20;;;9.60;99.90;;;;;;5051806;28;20040;-75
2022/05/29 04:59:07;;;;;;;0.22;0.22;;;9.40;99.90;;;;;;5017528;28;20048;-75
2022/05/29 05:01:33;;;;;;;0.20;0.20;;;9.60;99.90;;;;;;5034226;28;20025;-75
2022/05/29 05:03:59;;;;;;;0.22;0.22;;;9.60;99.90;;;;;;5033892;28;20028;-75
2022/05/29 05:06:25;;;;;;;0.15;0.15;;;9.60;99.90;;;;;;5051636;28;20492;-75
2022/05/29 05:08:50;;;;;;;0.20;0.20;;;9.70;99.90;;;;;;5051443;28;20032;-75
2022/05/29 05:11:16;;;;;;;0.20;0.20;;;9.90;99.90;;;;;;5061120;28;20078;-75
2022/05/29 05:13:42;;;;;;;0.10;0.10;;;10.00;99.90;;;;;;5033971;28;20456;-75
2022/05/29 05:16:07;;;;;;;0.20;0.20;;;10.10;99.90;;;;;;5057211;28;20392;-75
2022/05/29 05:18:33;;;;;;;0.20;0.20;;;10.30;99.90;;;;;;5071171;28;20517;-75
2022/05/29 05:21:02;;;;;;;0.20;0.20;;;10.50;99.90;;;;;;5042247;28;20037;-75
2022/05/29 05:23:28;;;;;;;0.20;0.20;;;10.70;99.90;;;;;;5017252;28;20029;-75
2022/05/29 05:25:54;;;;;;;0.20;0.20;;;10.70;99.90;;;;;;5051765;28;20183;-75
2022/05/29 05:28:20;;;;;;;0.20;0.20;;;10.70;99.90;;;;;;5033737;28;20053;-75
2022/05/29 05:30:47;;;;;;;0.20;0.20;;;10.90;99.90;;;;;;5050586;28;20017;-75
2022/05/29 05:33:13;;;;;;;0.20;0.20;;;10.90;99.90;;;;;;5033456;28;20079;-75
2022/05/29 05:35:39;;;;;;;0.20;0.20;;;10.90;99.90;;;;;;5033654;28;20021;-75
2022/05/29 05:38:06;;;;;;;0.20;0.20;;;10.90;99.90;;;;;;5051093;28;20131;-75
2022/05/29 05:40:32;;;;;;;0.10;0.10;;;11.00;99.90;;;;;;5017501;28;20029;-76
2022/05/29 05:42:57;;;;;;;0.15;0.15;;;11.10;99.90;;;;;;5051596;28;20021;-75
2022/05/29 05:45:23;;;;;;;0.10;0.10;;;11.20;99.90;;;;;;5044434;28;20384;-75
2022/05/29 05:47:49;;;;;;;0.13;0.13;;;11.30;99.90;;;;;;5036395;28;20021;-75
2022/05/29 05:50:15;;;;;;;0.10;0.10;;;11.30;99.90;;;;;;5033853;28;20476;-75
2022/05/29 05:52:41;;;;;;;0.20;0.20;;;11.40;99.90;;;;;;5051374;28;20052;-75
2022/05/29 05:55:10;;;;;;;0.20;0.20;;;11.50;99.90;;;;;;5051438;28;20036;-75
2022/05/29 05:57:37;;;;;;;0.20;0.20;;;11.20;99.90;;;;;;5051237;28;20020;-75
2022/05/29 06:00:06;;;;;;;0.17;0.17;;;11.10;99.90;;;;;;5033460;28;20028;-73
2022/05/29 06:02:32;;;;;;;0.15;0.15;;;11.30;99.90;;;;;;5051329;28;20476;-74
2022/05/29 06:04:57;;;;;;;0.20;0.20;;;11.40;99.90;;;;;;5016756;28;20036;-74
2022/05/29 06:07:23;;;;;;;0.65;0.65;;;11.60;99.90;;;;;;5050796;28;20037;-74
2022/05/29 06:09:49;;;;;;;0.10;0.10;;;11.70;99.90;;;;;;5033450;28;20033;-73
2022/05/29 06:12:19;;;;;;;0.10;0.10;;;11.60;99.90;;;;;;5033293;28;20361;-74
2022/05/29 06:14:46;;;;;;;0.20;0.20;;;11.60;99.90;;;;;;5033525;28;20021;-74
2022/05/29 06:17:11;;;;;;;0.10;0.10;;;11.70;99.90;;;;;;5016594;28;20115;-74
2022/05/29 06:19:37;;;;;;;0.20;0.20;;;11.80;99.90;;;;;;5016683;28;20107;-74
2022/05/29 06:22:03;;;;;;;0.20;0.20;;;11.90;99.90;;;;;;5051227;28;20029;-74
2022/05/29 06:24:30;;;;;;;0.28;0.28;;;11.90;99.90;;;;;;5051079;28;20057;-74
2022/05/29 06:26:59;;;;;;;0.20;0.20;;;11.80;99.90;;;;;;5016565;28;20094;-74
2022/05/29 06:29:26;;;;;;;0.22;0.22;;;11.60;99.90;;;;;;5052205;28;20079;-74
2022/05/29 06:31:55;;;;;;;0.10;0.10;;;11.70;99.90;;;;;;5020352;28;20432;-74
2022/05/29 06:34:21;;;;;;;0.10;0.10;;;11.90;99.90;;;;;;5055150;28;20043;-74
2022/05/29 06:36:47;;;;;;;0.20;0.20;;;11.90;99.90;;;;;;5036555;28;20100;-74
2022/05/29 06:39:13;;;;;;;0.10;0.10;;;12.00;99.90;;;;;;5036504;28;20129;-74
2022/05/29 06:41:39;;;;;;;0.10;0.10;;;12.10;99.90;;;;;;5019971;28;20535;-74
2022/05/29 06:44:06;;;;;;;0.20;0.20;;;12.10;99.90;;;;;;5054350;28;20445;-75
2022/05/29 06:46:32;;;;;;;0.20;0.20;;;12.00;99.90;;;;;;5032864;28;20025;-74
2022/05/29 06:48:58;;;;;;;0.20;0.20;;;12.00;99.90;;;;;;5016915;28;20473;-75
2022/05/29 06:51:24;;;;;;;0.13;0.13;;;12.10;99.90;;;;;;5034359;28;20071;-74
2022/05/29 06:53:52;;;;;;;0.20;0.20;;;12.00;99.90;;;;;;5016619;28;20029;-75
2022/05/29 06:56:19;;;;;;;0.28;0.28;;;12.10;99.90;;;;;;5016410;28;20025;-75
2022/05/29 06:58:46;;;;;;;0.40;0.40;;;12.00;99.90;;;;;;5016655;28;20501;-74
2022/05/29 07:06:59;;;;;;;0.40;0.40;;;12.20;99.90;;;;;;5033946;28;20385;-74
2022/05/29 07:09:29;;;;;;;0.20;0.20;;;12.20;99.90;;;;;;5033942;28;20025;-74
2022/05/29 07:12:05;;;;;;;0.20;0.20;;;12.00;99.90;;;;;;5033882;28;20018;-74
2022/05/29 07:14:34;;;;;;;0.20;0.20;;;12.20;99.90;;;;;;5016175;28;20393;-74
2022/05/29 07:17:00;;;;;;;0.17;0.17;;;12.40;99.90;;;;;;5020096;28;20021;-74
2022/05/29 07:19:28;;;;;;;1.75;1.30;;;12.30;99.90;;;;;;5035445;28;20511;-74
2022/05/29 07:21:57;;;;;;;0.20;0.20;;;12.40;99.90;;;;;;5035372;28;20025;-74
2022/05/29 07:24:24;;;;;;;0.50;0.50;;;12.50;99.90;;;;;;5035714;28;20056;-74
2022/05/29 07:26:50;;;;;;;0.10;0.10;;;12.40;99.90;;;;;;5018817;28;20029;-74
2022/05/29 07:29:17;;;;;;;0.10;0.10;;;12.20;99.90;;;;;;5019077;28;20066;-74
2022/05/29 07:31:45;;;;;;;0.30;0.30;;;12.20;99.90;;;;;;5033940;28;20087;-74
2022/05/29 07:34:14;;;;;;;0.82;0.82;;;12.30;99.90;;;;;;5053511;28;20179;-76
2022/05/29 07:36:49;;;;;;;0.35;0.35;;;12.60;99.90;;;;;;5019821;28;20026;-74
2022/05/29 07:39:16;;;;;;;0.10;0.10;;;12.80;99.90;;;;;;5053469;28;20118;-75
2022/05/29 07:44:26;;;;;;;0.20;0.20;;;12.50;99.90;;;;;;5034283;28;20440;-74
2022/05/29 07:46:51;;;;;;;0.20;0.20;;;12.40;99.90;;;;;;5052820;28;20048;-74
2022/05/29 07:49:17;;;;;;;0.20;0.20;;;12.60;99.90;;;;;;5035091;28;20097;-74
2022/05/29 07:51:43;;;;;;;0.20;0.20;;;12.50;99.90;;;;;;5035221;28;20040;-75
2022/05/29 07:54:09;;;;;;;0.20;0.20;;;12.40;99.90;;;;;;5035310;28;20021;-74
2022/05/29 07:56:35;;;;;;;0.10;0.10;;;12.50;99.90;;;;;;5053014;28;20027;-74
2022/05/29 07:59:01;;;;;;;0.40;0.40;;;12.50;99.90;;;;;;5034894;28;20032;-74
2022/05/29 08:01:26;;;;;;;0.13;0.13;;;12.20;99.90;;;;;;5052967;28;20377;-74
2022/05/29 08:03:52;;;;;;;0.10;0.10;;;12.00;99.90;;;;;;5035153;28;20036;-74
2022/05/29 08:06:18;;;;;;;0.20;0.20;;;12.00;99.90;;;;;;5035047;28;20504;-74
2022/05/29 08:08:44;;;;;;;0.10;0.10;;;12.30;99.90;;;;;;5052465;28;20033;-74
2022/05/29 08:11:11;;;;;;;0.10;0.10;;;12.40;99.90;;;;;;5052747;28;20027;-74
2022/05/29 08:13:37;;;;;;;0.10;0.10;;;12.40;99.90;;;;;;5052678;28;20052;-74
2022/05/29 08:16:04;;;;;;;0.20;0.20;;;12.50;99.90;;;;;;5052680;28;20033;-74
2022/05/29 08:18:30;;;;;;;0.15;0.15;;;12.50;99.90;;;;;;5052260;28;20444;-74
2022/05/29 08:20:56;;;;;;;0.15;0.15;;;12.60;99.90;;;;;;5052508;28;20108;-74
2022/05/29 08:23:23;;;;;;;0.10;0.10;;;12.60;99.90;;;;;;5052720;28;20068;-74
2022/05/29 08:31:20;;;;;;;0.20;0.20;;;12.70;99.90;;;;;;5052352;28;20036;-74
2022/05/29 08:33:47;;;;;;;0.20;0.20;;;12.60;99.90;;;;;;5052390;28;20480;-75
2022/05/29 08:36:19;;;;;;;0.15;0.15;;;12.60;99.90;;;;;;5052546;28;20086;-74
2022/05/29 08:38:47;;;;;;;0.20;0.20;;;12.50;99.90;;;;;;5052169;28;20055;-74
2022/05/29 08:41:17;;;;;;;0.22;0.22;;;12.60;99.90;;;;;;5052163;28;20056;-74
2022/05/29 08:43:57;;;;;;;0.32;0.32;;;12.50;99.90;;;;;;5052352;28;20024;-74
2022/05/29 08:46:30;;;;;;;0.13;0.13;;;12.20;99.90;;;;;;5052000;28;20032;-74
2022/05/29 08:48:56;;;;;;;0.10;0.10;;;12.30;99.90;;;;;;5034249;28;20025;-75
2022/05/29 08:51:47;;;;;;;0.10;0.10;;;12.60;99.90;;;;;;5033743;28;20480;-75
2022/05/29 08:54:47;;;;;;;0.15;0.15;;;12.90;99.90;;;;;;5051900;28;20099;-75
2022/05/29 08:57:19;;;;;;;0.30;0.30;;;12.90;99.90;;;;;;5051718;28;20031;-75
2022/05/29 08:59:52;;;;;;;0.10;0.10;;;12.90;99.90;;;;;;5034061;28;20060;-75
2022/05/29 09:02:54;;;;;;;0.10;0.10;;;12.90;99.90;;;;;;5052013;28;20171;-75
2022/05/29 09:05:42;;;;;;;0.10;0.10;;;13.00;99.90;;;;;;5051933;28;20425;-75
2022/05/29 09:08:23;;;;;;;0.10;0.10;;;13.00;99.90;;;;;;5033766;28;20029;-75
2022/05/29 09:10:54;;;;;;;0.20;0.20;;;13.00;99.90;;;;;;5017340;28;20024;-75
2022/05/29 09:13:43;;;;;;;0.15;0.15;;;13.10;99.90;;;;;;5034015;28;20079;-75
2022/05/29 09:16:15;;;;;;;0.40;0.40;;;13.20;99.90;;;;;;5051729;28;20354;-75
2022/05/29 09:18:47;;;;;;;0.50;0.50;;;13.10;99.90;;;;;;5051341;28;20060;-75
2022/05/29 09:21:17;;;;;;;0.28;0.28;;;13.00;99.90;;;;;;5034008;28;20366;-75
2022/05/29 09:24:12;;;;;;;0.20;0.20;;;12.80;99.90;;;;;;5051352;28;20029;-75
2022/05/29 09:26:39;;;;;;;0.10;0.10;;;12.80;99.90;;;;;;5032631;28;20027;-75
2022/05/29 09:29:06;;;;;;;0.10;0.10;;;12.70;99.90;;;;;;5017000;28;20029;-75
2022/05/29 09:31:33;;;;;;;0.10;0.10;;;12.80;99.90;;;;;;5033446;28;20102;-75
2022/05/29 09:33:59;;;;;;;0.20;0.20;;;13.00;99.90;;;;;;5050707;28;20029;-75
2022/05/29 09:36:50;;;;;;;0.10;0.10;;;13.00;99.90;;;;;;5051505;28;20114;-75
2022/05/29 09:39:26;;;;;;;0.10;0.10;;;13.10;99.90;;;;;;5051234;28;20455;-75
2022/05/29 09:42:10;;;;;;;0.10;0.10;;;13.20;99.90;;;;;;5051073;28;20112;-75
2022/05/29 09:44:36;;;;;;;1.67;0.75;;;13.10;99.90;;;;;;5033506;28;20029;-75
2022/05/29 09:50:10;;;;;;;0.10;0.10;;;13.40;99.90;;;;;;5051866;28;20202;-75
2022/05/29 09:52:41;;;;;;;0.90;0.90;;;13.60;99.90;;;;;;5017125;28;20025;-75
2022/05/29 09:55:18;;;;;;;0.10;0.10;;;14.00;99.80;;;;;;5033496;28;20075;-75
2022/05/29 09:57:52;;;;;;;0.85;0.85;;;14.20;97.10;;;;;;5016718;28;20021;-75
2022/05/29 10:00:27;;;;;;;0.10;0.10;;;14.00;96.00;;;;;;5051366;28;20025;-75
2022/05/29 10:02:54;;;;;;;0.10;0.10;;;13.90;97.30;;;;;;5051792;28;20032;-75
2022/05/29 10:05:27;;;;;;;0.13;0.13;;;14.00;98.40;;;;;;5055064;28;20052;-75
2022/05/29 10:07:56;;;;;;;0.10;0.10;;;13.60;98.80;;;;;;5054774;28;20025;-75
2022/05/29 10:10:25;;;;;;;0.10;0.10;;;13.10;99.00;;;;;;5037131;28;20108;-75
2022/05/29 10:12:53;;;;;;;0.10;0.10;;;12.90;98.30;;;;;;5055036;28;20029;-75
2022/05/29 10:15:25;;;;;;;0.20;0.20;;;13.20;97.10;;;;;;5037117;28;20063;-75
2022/05/29 10:18:23;;;;;;;;;;;13.30;96.00;;;;;;5037191;28;20392;-75
2022/05/29 10:20:50;;;;;;;0.10;0.10;;;13.30;96.10;;;;;;4993804;28;19911;-75
2022/05/29 10:23:34;;;;;;;0.20;0.20;;;13.50;94.80;;;;;;5036952;28;20029;-75
2022/05/29 10:26:23;;;;;;;0.10;0.10;;;13.60;94.90;;;;;;5036864;28;20078;-75
2022/05/29 10:28:49;;;;;;;0.45;0.45;;;13.70;94.90;;;;;;5035343;28;20028;-75
2022/05/29 10:31:30;;;;;;;0.20;0.20;;;13.60;94.30;;;;;;5054608;28;20017;-75
2022/05/29 10:34:06;;;;;;;0.10;0.10;;;13.70;93.20;;;;;;5054513;28;20036;-75
2022/05/29 10:36:33;;;;;;;0.10;0.10;;;13.80;93.00;;;;;;5036653;28;20017;-75
2022/05/29 10:39:24;;;;;;;0.20;0.20;;;14.00;91.80;;;;;;5054470;28;20028;-75
2022/05/29 10:41:52;;;;;;;0.17;0.17;;;14.30;91.20;;;;;;5031786;28;20032;-75
2022/05/29 10:44:38;;;;;;;0.10;0.10;;;14.20;90.10;;;;;;5019839;28;20111;-75
2022/05/29 10:47:16;;;;;;;0.17;0.17;;;14.10;91.40;;;;;;5054154;28;20032;-75
2022/05/29 10:50:07;;;;;;;0.75;0.75;;;14.10;92.00;;;;;;5054046;28;20091;-75
2022/05/29 10:52:51;;;;;;;0.25;0.25;;;13.90;92.00;;;;;;5036402;28;20068;-76
2022/05/29 10:55:40;;;;;;;0.10;0.10;;;13.90;91.60;;;;;;5036997;28;20028;-75
2022/05/29 10:58:27;;;;;;;0.40;0.40;;;13.90;92.60;;;;;;5053290;28;20040;-75
2022/05/29 11:03:17;;;;;;;0.20;0.20;;;13.80;93.20;;;;;;5035157;28;20025;-74
2022/05/29 11:04:07;;;;;;;0.10;0.10;;;13.80;93.10;;;;;;5039763;28;20033;-75
2022/05/29 11:07:02;;;;;;;0.20;0.20;;;13.90;92.50;;;;;;5053650;28;20104;-75
2022/05/29 11:09:39;;;;;;;0.40;0.40;;;14.00;92.40;;;;;;5035903;28;20082;-75
2022/05/29 11:12:22;;;;;;;0.17;0.17;;;14.20;92.50;;;;;;5036085;28;20156;-75
2022/05/29 11:15:10;;;;;;;0.30;0.30;;;14.20;92.20;;;;;;5018831;28;20430;-75
2022/05/29 11:17:48;;;;;;;0.40;0.40;;;14.20;92.80;;;;;;5053348;28;20032;-75
2022/05/29 11:20:34;;;;;;;0.10;0.10;;;14.20;93.90;;;;;;5053714;28;20024;-75
2022/05/29 11:23:27;;;;;;;0.10;0.10;;;14.10;94.80;;;;;;5035936;28;20468;-75
2022/05/29 11:26:06;;;;;;;0.10;0.10;;;14.10;94.60;;;;;;5053742;28;20021;-75
2022/05/29 11:29:07;;;;;;;0.20;0.20;;;13.90;94.20;;;;;;5035809;28;20427;-75
2022/05/29 11:31:55;;;;;;;0.20;0.20;;;13.70;94.10;;;;;;5053625;28;20361;-75
2022/05/29 11:34:30;;;;;;;0.30;0.30;;;13.70;94.80;;;;;;5034955;28;20385;-75
2022/05/29 11:37:16;;;;;;;1.00;0.68;;;13.70;94.60;;;;;;5052820;28;20029;-75
2022/05/29 11:39:52;;;;;;;0.40;0.40;;;14.10;93.80;;;;;;5035297;28;20121;-75
2022/05/29 11:42:51;;;;;;;0.15;0.15;;;14.90;93.60;;;;;;5053387;28;20559;-75
2022/05/29 11:51:21;;;;;;;;;;;16.40;89.60;;;;;;5035865;28;20075;-75
2022/05/29 11:54:03;;;;;;;0.20;0.20;;;16.30;88.10;;;;;;5035250;28;19905;-75
2022/05/29 11:56:41;;;;;;;0.10;0.10;;;16.10;88.50;;;;;;5035227;28;20025;-75
2022/05/29 11:59:22;;;;;;;0.10;0.10;;;15.90;88.60;;;;;;5018294;28;20051;-75
2022/05/29 12:01:57;;;;;;;0.10;0.10;;;15.90;88.00;;;;;;5053138;28;20025;-75
2022/05/29 12:04:33;;;;;;;0.30;0.30;;;15.90;88.00;;;;;;5052635;28;20112;-75
2022/05/29 12:07:14;;;;;;;0.10;0.10;;;16.00;89.70;;;;;;5035111;28;20021;-75
2022/05/29 12:10:11;;;;;;;0.10;0.10;;;15.80;91.10;;;;;;5048385;23;20074;-71
2022/05/29 12:12:43;;;;;;;0.10;0.10;;;15.40;91.50;;;;;;5025119;28;20495;-72
2022/05/29 12:15:15;;;;;;;0.10;0.10;;;15.50;90.40;;;;;;5052895;28;20088;-74
2022/05/29 12:17:45;;;;;;;0.30;0.30;;;15.50;87.70;;;;;;5034661;28;20389;-72
2022/05/29 12:20:35;;;;;;;0.15;0.15;;;15.30;86.30;;;;;;5052711;28;20389;-72
2022/05/29 12:23:09;;;;;;;0.28;0.28;;;15.40;87.60;;;;;;5052580;28;20079;-73
2022/05/29 12:26:18;;;;;;;0.10;0.10;;;15.00;87.70;;;;;;5034821;28;20029;-72
2022/05/29 12:28:46;;;;;;;0.15;0.15;;;14.80;88.80;;;;;;5018775;28;20036;-72
2022/05/29 12:31:32;;;;;;;1.85;0.60;;;14.50;90.20;;;;;;5052524;28;20040;-72
2022/05/29 12:33:58;;;;;;;0.22;0.22;;;14.10;90.50;;;;;;5052472;28;20036;-72
2022/05/29 12:36:48;;;;;;;0.10;0.10;;;14.00;91.10;;;;;;5052342;28;20392;-72
2022/05/29 12:39:37;;;;;;;0.60;0.60;;;14.30;91.40;;;;;;5052270;28;20036;-71
2022/05/29 12:42:18;;;;;;;0.10;0.10;;;14.40;90.70;;;;;;5051572;28;20041;-72
2022/05/29 12:45:02;;;;;;;0.20;0.20;;;13.90;91.50;;;;;;5052271;28;20447;-72
2022/05/29 12:47:56;;;;;;;0.10;0.10;;;13.80;91.30;;;;;;5052139;28;20025;-72
2022/05/29 12:50:52;;;;;;;0.32;0.32;;;13.70;92.10;;;;;;5052066;28;20028;-71
2022/05/29 12:53:49;;;;;;;0.10;0.10;;;13.60;92.60;;;;;;5052177;28;20028;-72
2022/05/29 12:56:59;;;;;;;0.10;0.10;;;13.30;93.90;;;;;;5052005;28;20056;-71
2022/05/29 12:59:31;;;;;;;0.35;0.35;;;13.00;94.70;;;;;;5052301;28;20088;-72
2022/05/29 13:02:02;;;;;;;;;;;12.90;94.70;;;;;;5052442;28;20102;-71
2022/05/29 13:04:59;;;;;;;0.50;0.50;;;12.90;94.70;;;;;;5034138;28;19909;-72
2022/05/29 13:07:26;;;;;;;0.15;0.15;;;13.00;94.90;;;;;;5051725;28;20532;-71
2022/05/29 13:10:09;;;;;;;0.43;0.22;;;13.00;95.10;;;;;;5051776;28;20029;-72
2022/05/29 13:12:41;;;;;;;0.10;0.10;;;13.30;95.00;;;;;;5051941;28;20096;-72
2022/05/29 13:15:12;;;;;;;0.22;0.22;;;13.20;95.10;;;;;;5051862;28;20029;-71
2022/05/29 13:17:39;;;;;;;0.10;0.10;;;13.40;95.80;;;;;;5051697;28;20025;-72
2022/05/29 13:20:17;;;;;;;0.20;0.20;;;13.40;93.30;;;;;;5051645;28;20021;-72
2022/05/29 13:22:52;;;;;;;0.20;0.20;;;13.60;92.80;;;;;;5033851;28;20115;-71
2022/05/29 13:25:22;;;;;;;0.20;0.20;;;13.70;90.70;;;;;;5051693;28;20021;-71
2022/05/29 13:27:48;;;;;;;0.30;0.30;;;13.50;86.40;;;;;;5051578;28;20024;-71
2022/05/29 13:31:01;;;;;;;0.10;0.10;;;13.60;86.30;;;;;;5033865;28;20024;-72
2022/05/29 13:33:27;;;;;;;0.30;0.30;;;13.80;88.80;;;;;;5051639;28;20039;-72
2022/05/29 13:35:54;;;;;;;0.10;0.10;;;13.90;89.90;;;;;;5033776;28;20346;-72
2022/05/29 13:38:44;;;;;;;0.20;0.20;;;14.20;89.40;;;;;;5034879;28;20495;-72
2022/05/29 13:41:30;;;;;;;0.13;0.13;;;14.30;89.80;;;;;;5055713;28;20416;-72
2022/05/29 13:43:57;;;;;;;0.25;0.25;;;14.50;89.60;;;;;;5037785;28;20384;-72
2022/05/29 13:46:27;;;;;;;0.52;0.30;;;14.50;84.80;;;;;;5055409;28;20029;-72
2022/05/29 13:49:19;;;;;;;0.20;0.20;;;14.30;90.80;;;;;;5055544;28;20532;-73
2022/05/29 13:51:46;;;;;;;0.60;0.60;;;14.40;91.20;;;;;;5055813;28;20481;-72